Huvudsida
METAR-TAF:

METAR-TAF

Flygplatser :

Hasviks flygplats

Hasviks, Norge

latitud: 70-29N, longitud: 022-09E, höjd: 10 m

Aktuellt väderrapport

Denna rapport gjordes för 20 timmar och 18 minuter sedan, klockan 19:20 UTC
Vind 7 kt från nord/nordväst
Temperatur 6°C
Fuktighet 100%
Tryck 1012 hPa
Sikt 10 km eller mer
Få moln på en höjd av 900 ft
Spridda moln på en höjd av 1100 ft
Brutna moln på en höjd av 1700 ft
lätta regnskurar

METAR: ENHK 191920Z 33007KT 9999 -SHRA FEW009 SCT011 BKN017 06/06 Q1012

Tid: 17:38 (15:38 UTC)


TAF: saknas

Aktuella väderrapporter och prognoser från 4000 flygplatser (METAR- och TAF-rapporter).

De tillgängliga stationerna syns som gula och röda prickar på kartan.

För musen över prickarna för att se namnen på stationerna.

Klicka sedan för att få väderrapporter och prognoser.

För att ändra kartan: Klicka på de gröna knapparna med ett svart kors på för att zooma in; den gröna knappen med ett streck på för att zooma ut; eller på de gröna pilarna för angränsande kartor.


METAR-TAF: